Time;durP1;ratioP1;P1;durP2;ratioP2;P2;SDS_P1;SDS_P2;PMS_P1;PMS_P2;Temp;Humidity;BMP_temperature;BMP_pressure;BME280_temperature;BME280_humidity;BME280_pressure;Samples;Min_cycle;Max_cycle;Signal;HPM_P1;HPM_P2
2021/07/20 00:02:00;;;;;;;3.88;2.78;;;;;;;;;;5092978;28;20510;-87
2021/07/20 00:04:27;;;;;;;4.32;2.28;;;;;;;;;;5093275;28;20075;-87
2021/07/20 00:06:53;;;;;;;4.30;2.28;;;;;;;;;;5093185;28;20052;-87
2021/07/20 00:09:20;;;;;;;4.15;2.90;;;;;;;;;;5093132;28;20102;-87
2021/07/20 00:11:46;;;;;;;4.18;2.67;;;;;;;;;;5093050;28;20044;-87
2021/07/20 00:14:13;;;;;;;3.03;1.98;;;;;;;;;;5092792;28;20052;-87
2021/07/20 00:16:41;;;;;;;5.00;2.70;;;;;;;;;;5092844;28;20060;-87
2021/07/20 00:19:07;;;;;;;3.47;2.78;;;;;;;;;;5092870;28;20051;-87
2021/07/20 00:21:34;;;;;;;4.22;2.55;;;;;;;;;;5091705;28;20048;-86
2021/07/20 00:24:00;;;;;;;4.18;2.88;;;;;;;;;;5092784;28;21438;-87
2021/07/20 00:26:27;;;;;;;3.72;2.35;;;;;;;;;;5092423;28;20136;-87
2021/07/20 00:28:53;;;;;;;4.80;2.80;;;;;;;;;;5092340;28;20063;-87
2021/07/20 00:31:20;;;;;;;4.63;2.88;;;;;;;;;;5092549;28;20048;-87
2021/07/20 00:33:48;;;;;;;3.60;2.45;;;;;;;;;;5092265;28;20052;-87
2021/07/20 00:36:14;;;;;;;4.00;3.20;;;;;;;;;;5092480;28;20097;-87
2021/07/20 00:38:41;;;;;;;2.80;2.08;;;;;;;;;;5092375;28;20488;-87
2021/07/20 00:41:07;;;;;;;4.22;2.45;;;;;;;;;;5092309;28;20487;-87
2021/07/20 00:43:34;;;;;;;3.58;2.13;;;;;;;;;;5092309;28;20504;-87
2021/07/20 00:46:01;;;;;;;2.90;2.17;;;;;;;;;;5092114;28;20048;-87
2021/07/20 00:48:27;;;;;;;4.85;2.70;;;;;;;;;;5092455;28;20415;-87
2021/07/20 00:50:55;;;;;;;4.35;2.85;;;;;;;;;;5091628;28;20048;-87
2021/07/20 00:53:22;;;;;;;3.58;2.20;;;;;;;;;;5092037;28;20408;-86
2021/07/20 00:55:49;;;;;;;5.47;2.83;;;;;;;;;;5091989;28;20048;-86
2021/07/20 00:58:17;;;;;;;4.18;3.38;;;;;;;;;;5091837;28;20115;-87
2021/07/20 01:00:47;;;;;;;8.32;3.05;;;;;;;;;;5091813;28;20052;-87
2021/07/20 01:03:14;;;;;;;9.00;3.20;;;;;;;;;;5091869;28;20132;-87
2021/07/20 01:05:40;;;;;;;4.57;2.67;;;;;;;;;;5090941;28;20488;-87
2021/07/20 01:08:08;;;;;;;4.85;2.35;;;;;;;;;;5088402;28;20068;-87
2021/07/20 01:10:37;;;;;;;4.97;2.83;;;;;;;;;;5085702;28;20051;-87
2021/07/20 01:13:03;;;;;;;4.97;2.80;;;;;;;;;;5088407;28;20051;-86
2021/07/20 01:15:30;;;;;;;3.90;2.60;;;;;;;;;;5091475;28;20040;-87
2021/07/20 01:17:58;;;;;;;6.40;2.88;;;;;;;;;;5091666;28;20462;-87
2021/07/20 01:20:31;;;;;;;5.28;2.63;;;;;;;;;;5090497;28;20522;-87
2021/07/20 01:23:00;;;;;;;2.90;1.60;;;;;;;;;;5091553;28;20482;-87
2021/07/20 01:25:29;;;;;;;5.40;2.28;;;;;;;;;;5091964;28;20052;-86
2021/07/20 01:27:57;;;;;;;9.50;2.85;;;;;;;;;;5091780;28;20048;-87
2021/07/20 01:30:24;;;;;;;7.82;3.35;;;;;;;;;;5091477;28;20040;-86
2021/07/20 01:32:52;;;;;;;4.43;2.78;;;;;;;;;;5087361;28;20385;-86
2021/07/20 01:35:19;;;;;;;3.97;2.65;;;;;;;;;;5091147;28;20491;-87
2021/07/20 01:37:45;;;;;;;4.65;2.92;;;;;;;;;;5087628;28;21160;-87
2021/07/20 01:40:13;;;;;;;3.08;2.03;;;;;;;;;;5091029;28;20074;-86
2021/07/20 01:42:42;;;;;;;4.28;2.20;;;;;;;;;;5091110;28;20044;-87
2021/07/20 01:45:09;;;;;;;2.78;2.13;;;;;;;;;;5091268;28;20047;-87
2021/07/20 01:47:37;;;;;;;6.03;2.50;;;;;;;;;;5090186;28;20063;-87
2021/07/20 01:50:05;;;;;;;7.93;3.42;;;;;;;;;;5091176;28;20129;-87
2021/07/20 01:52:32;;;;;;;3.92;2.92;;;;;;;;;;5091535;28;20552;-87
2021/07/20 01:54:59;;;;;;;4.97;2.75;;;;;;;;;;5091286;28;20048;-87
2021/07/20 01:57:25;;;;;;;7.20;3.53;;;;;;;;;;5091088;28;20438;-87
2021/07/20 01:59:54;;;;;;;4.22;2.63;;;;;;;;;;5090955;28;20060;-86
2021/07/20 02:02:28;;;;;;;3.20;2.53;;;;;;;;;;5091079;28;20048;-86
2021/07/20 02:10:27;;;;;;;3.58;2.80;;;;;;;;;;5091103;28;20181;-87
2021/07/20 02:12:56;;;;;;;6.32;2.15;;;;;;;;;;5090830;28;20098;-87
2021/07/20 02:15:24;;;;;;;8.70;3.28;;;;;;;;;;5091198;28;20122;-86
2021/07/20 02:17:52;;;;;;;4.30;3.25;;;;;;;;;;5090980;28;20052;-87
2021/07/20 02:20:20;;;;;;;6.07;2.70;;;;;;;;;;5090555;28;20093;-86
2021/07/20 02:22:47;;;;;;;6.18;3.67;;;;;;;;;;5090820;28;20097;-87
2021/07/20 02:25:14;;;;;;;5.50;2.88;;;;;;;;;;5090703;28;20438;-87
2021/07/20 02:27:41;;;;;;;4.82;3.03;;;;;;;;;;5090519;28;20063;-87
2021/07/20 02:30:11;;;;;;;4.10;2.70;;;;;;;;;;5090909;28;20055;-87
2021/07/20 02:32:39;;;;;;;4.55;3.13;;;;;;;;;;5090940;28;20048;-87
2021/07/20 02:35:06;;;;;;;7.38;3.75;;;;;;;;;;5090666;28;20574;-87
2021/07/20 02:37:33;;;;;;;4.60;2.70;;;;;;;;;;5068676;28;20097;-87
2021/07/20 02:40:01;;;;;;;5.10;3.45;;;;;;;;;;5090479;28;20089;-87
2021/07/20 02:42:27;;;;;;;4.05;2.10;;;;;;;;;;5090613;28;20105;-87
2021/07/20 02:44:54;;;;;;;6.43;3.92;;;;;;;;;;5090146;28;20045;-87
2021/07/20 02:47:21;;;;;;;5.22;3.17;;;;;;;;;;5090529;28;20052;-87
2021/07/20 02:49:49;;;;;;;4.43;3.42;;;;;;;;;;5090430;28;20097;-86
2021/07/20 02:52:16;;;;;;;5.85;3.42;;;;;;;;;;5090528;28;20048;-87
2021/07/20 02:54:43;;;;;;;4.47;2.83;;;;;;;;;;5090315;28;20063;-87
2021/07/20 02:57:09;;;;;;;4.32;3.33;;;;;;;;;;5090660;28;20056;-87
2021/07/20 02:59:37;;;;;;;9.23;3.83;;;;;;;;;;5090473;28;20071;-87
2021/07/20 03:02:04;;;;;;;15.55;3.33;;;;;;;;;;5070359;28;20056;-87
2021/07/20 03:04:32;;;;;;;3.53;2.90;;;;;;;;;;5070342;28;20059;-86
2021/07/20 03:07:00;;;;;;;3.83;3.13;;;;;;;;;;5070168;28;20052;-86
2021/07/20 03:09:27;;;;;;;4.57;3.10;;;;;;;;;;5070194;28;20408;-86
2021/07/20 03:11:56;;;;;;;3.53;2.08;;;;;;;;;;5070429;28;20052;-86
2021/07/20 03:14:24;;;;;;;4.85;3.13;;;;;;;;;;5070257;28;20052;-87
2021/07/20 03:16:51;;;;;;;6.88;3.28;;;;;;;;;;3138474;28;10003599;-86
2021/07/20 03:19:22;;;;;;;4.75;2.90;;;;;;;;;;5070011;28;20090;-86
2021/07/20 03:21:50;;;;;;;6.28;3.80;;;;;;;;;;5069998;28;20040;-87
2021/07/20 03:24:18;;;;;;;5.30;3.05;;;;;;;;;;5069959;28;20055;-86
2021/07/20 03:26:45;;;;;;;5.05;2.58;;;;;;;;;;5069965;28;20484;-87
2021/07/20 03:29:12;;;;;;;3.92;2.25;;;;;;;;;;5070211;28;20056;-86
2021/07/20 03:31:39;;;;;;;5.15;2.92;;;;;;;;;;5072254;28;20052;-87
2021/07/20 03:34:06;;;;;;;5.22;2.72;;;;;;;;;;5073417;28;20535;-87
2021/07/20 03:36:33;;;;;;;4.85;3.30;;;;;;;;;;5073667;28;20075;-86
2021/07/20 03:39:00;;;;;;;9.10;3.47;;;;;;;;;;5073606;28;20094;-87
2021/07/20 03:41:29;;;;;;;4.93;3.30;;;;;;;;;;5073530;28;20044;-87
2021/07/20 03:43:56;;;;;;;3.22;2.60;;;;;;;;;;5074183;28;20048;-86
2021/07/20 03:46:23;;;;;;;4.78;2.88;;;;;;;;;;5093560;28;20051;-86
2021/07/20 03:48:51;;;;;;;3.35;2.60;;;;;;;;;;5093809;28;20048;-87
2021/07/20 03:51:18;;;;;;;4.45;3.15;;;;;;;;;;5093482;28;20048;-87
2021/07/20 03:53:45;;;;;;;4.55;3.60;;;;;;;;;;5093584;28;20472;-86
2021/07/20 03:56:14;;;;;;;6.30;3.78;;;;;;;;;;5093393;28;20048;-86
2021/07/20 03:58:44;;;;;;;4.05;2.10;;;;;;;;;;5092925;28;20062;-86
2021/07/20 04:01:12;;;;;;;4.85;3.17;;;;;;;;;;5092997;28;20071;-86
2021/07/20 04:03:39;;;;;;;4.65;2.55;;;;;;;;;;5093087;28;20097;-87
2021/07/20 04:06:07;;;;;;;4.68;2.92;;;;;;;;;;5093354;28;20048;-87
2021/07/20 04:08:34;;;;;;;8.25;3.40;;;;;;;;;;5093301;28;20056;-87
2021/07/20 04:11:01;;;;;;;4.07;2.67;;;;;;;;;;5093185;28;20052;-86
2021/07/20 04:13:28;;;;;;;5.00;3.55;;;;;;;;;;5093082;28;20061;-87
2021/07/20 04:15:57;;;;;;;7.25;3.40;;;;;;;;;;5092708;28;20415;-85
2021/07/20 04:18:24;;;;;;;3.97;2.65;;;;;;;;;;5092954;28;20055;-87
2021/07/20 04:20:51;;;;;;;4.82;3.30;;;;;;;;;;5092764;28;20449;-86
2021/07/20 04:23:19;;;;;;;5.07;3.15;;;;;;;;;;5093171;28;20104;-86
2021/07/20 04:25:47;;;;;;;4.30;2.72;;;;;;;;;;5092867;28;20069;-87
2021/07/20 04:28:14;;;;;;;7.65;3.80;;;;;;;;;;5092666;28;20084;-86
2021/07/20 04:30:42;;;;;;;8.52;4.18;;;;;;;;;;5093126;28;20056;-87
2021/07/20 04:33:10;;;;;;;6.55;3.72;;;;;;;;;;5092632;28;20762;-87
2021/07/20 04:35:37;;;;;;;5.45;2.60;;;;;;;;;;5092768;28;20056;-87
2021/07/20 04:38:04;;;;;;;5.40;2.65;;;;;;;;;;5092498;28;20047;-87
2021/07/20 04:40:31;;;;;;;4.88;3.15;;;;;;;;;;5092392;28;20052;-87
2021/07/20 04:42:58;;;;;;;5.00;3.00;;;;;;;;;;5092232;28;20040;-87
2021/07/20 04:45:27;;;;;;;6.68;5.13;;;;;;;;;;5092257;28;20537;-87
2021/07/20 04:47:53;;;;;;;6.93;3.63;;;;;;;;;;5092263;28;20052;-86
2021/07/20 04:50:21;;;;;;;6.18;3.65;;;;;;;;;;5092291;28;20506;-87
2021/07/20 04:52:48;;;;;;;4.78;3.88;;;;;;;;;;5092289;28;20051;-87
2021/07/20 04:55:15;;;;;;;9.23;3.50;;;;;;;;;;5092126;28;20044;-87
2021/07/20 04:57:41;;;;;;;5.78;3.42;;;;;;;;;;5091913;28;20054;-87
2021/07/20 05:00:09;;;;;;;6.30;4.38;;;;;;;;;;5092293;28;20117;-87
2021/07/20 05:02:37;;;;;;;6.35;4.50;;;;;;;;;;5092164;28;20101;-87
2021/07/20 05:05:05;;;;;;;8.40;5.00;;;;;;;;;;5092027;28;20052;-86
2021/07/20 05:07:33;;;;;;;5.72;3.05;;;;;;;;;;5091938;28;20645;-86
2021/07/20 05:10:00;;;;;;;7.65;3.95;;;;;;;;;;5091911;28;20056;-87
2021/07/20 05:12:27;;;;;;;8.00;4.32;;;;;;;;;;5092086;28;20055;-86
2021/07/20 05:14:54;;;;;;;5.43;4.03;;;;;;;;;;5091630;28;20115;-85
2021/07/20 05:17:22;;;;;;;6.35;3.17;;;;;;;;;;5090294;28;20097;-85
2021/07/20 05:19:49;;;;;;;7.60;5.05;;;;;;;;;;5088323;28;20048;-86
2021/07/20 05:22:19;;;;;;;6.40;3.92;;;;;;;;;;5089251;28;20055;-86
2021/07/20 05:24:47;;;;;;;8.75;4.05;;;;;;;;;;5088929;28;20059;-86
2021/07/20 05:27:14;;;;;;;5.43;4.00;;;;;;;;;;5091780;28;20101;-85
2021/07/20 05:29:46;;;;;;;7.00;3.58;;;;;;;;;;5091581;28;20558;-86
2021/07/20 05:32:15;;;;;;;7.20;4.60;;;;;;;;;;5091620;28;20076;-86
2021/07/20 05:34:42;;;;;;;5.60;4.00;;;;;;;;;;5091491;28;20052;-86
2021/07/20 05:37:09;;;;;;;5.72;3.40;;;;;;;;;;5091406;28;20449;-85
2021/07/20 05:39:37;;;;;;;6.65;4.32;;;;;;;;;;5091723;28;20044;-85
2021/07/20 05:42:06;;;;;;;10.43;3.88;;;;;;;;;;5091478;28;20052;-84
2021/07/20 05:44:33;;;;;;;5.78;3.83;;;;;;;;;;5091414;28;20048;-85
2021/07/20 05:46:59;;;;;;;6.85;4.22;;;;;;;;;;5091176;28;20048;-85
2021/07/20 05:49:27;;;;;;;5.05;3.20;;;;;;;;;;5091321;28;20044;-84
2021/07/20 05:51:54;;;;;;;7.82;4.15;;;;;;;;;;5091137;28;20137;-84
2021/07/20 05:54:20;;;;;;;5.22;3.72;;;;;;;;;;5090835;28;20048;-84
2021/07/20 05:56:47;;;;;;;6.03;4.03;;;;;;;;;;5091056;28;20483;-84
2021/07/20 05:59:17;;;;;;;4.75;3.42;;;;;;;;;;5091183;28;20412;-84
2021/07/20 06:01:44;;;;;;;6.03;2.88;;;;;;;;;;5091019;28;20097;-84
2021/07/20 06:04:11;;;;;;;5.47;3.28;;;;;;;;;;5090919;28;20090;-84
2021/07/20 06:06:38;;;;;;;5.72;3.80;;;;;;;;;;5090834;28;20051;-84
2021/07/20 06:09:06;;;;;;;4.60;3.00;;;;;;;;;;5091091;28;20056;-83
2021/07/20 06:11:35;;;;;;;5.93;3.65;;;;;;;;;;5100557;28;20039;-83
2021/07/20 06:14:02;;;;;;;6.18;4.18;;;;;;;;;;5093561;27;20044;-83
2021/07/20 06:16:31;;;;;;;7.93;3.55;;;;;;;;;;5090740;28;20408;-83
2021/07/20 06:18:57;;;;;;;7.70;3.53;;;;;;;;;;5090755;28;20492;-83
2021/07/20 06:21:24;;;;;;;5.22;3.25;;;;;;;;;;5091033;28;20407;-83
2021/07/20 06:23:51;;;;;;;5.68;4.50;;;;;;;;;;5090976;28;20416;-83
2021/07/20 06:26:18;;;;;;;6.07;3.85;;;;;;;;;;5090912;28;20144;-83
2021/07/20 06:28:45;;;;;;;9.30;4.50;;;;;;;;;;5090657;28;20454;-83
2021/07/20 06:31:12;;;;;;;6.38;4.13;;;;;;;;;;5090627;28;20052;-83
2021/07/20 06:33:40;;;;;;;8.63;4.68;;;;;;;;;;5090685;28;20094;-83
2021/07/20 06:36:07;;;;;;;7.63;4.90;;;;;;;;;;5090615;28;20507;-81
2021/07/20 06:38:33;;;;;;;8.90;5.00;;;;;;;;;;5090802;28;20051;-82
2021/07/20 06:41:00;;;;;;;6.68;3.95;;;;;;;;;;5090732;28;20039;-83
2021/07/20 06:43:27;;;;;;;5.95;4.25;;;;;;;;;;5090694;28;20049;-82
2021/07/20 06:45:54;;;;;;;8.93;4.47;;;;;;;;;;5090535;28;20052;-83
2021/07/20 06:48:22;;;;;;;6.43;3.92;;;;;;;;;;5090595;28;20052;-82
2021/07/20 06:50:52;;;;;;;7.68;4.60;;;;;;;;;;5090541;28;20125;-82
2021/07/20 06:53:19;;;;;;;7.97;5.45;;;;;;;;;;5090547;28;20609;-83
2021/07/20 06:55:46;;;;;;;8.57;4.20;;;;;;;;;;5090599;28;20109;-83
2021/07/20 06:58:14;;;;;;;8.07;4.03;;;;;;;;;;5090421;28;20098;-81
2021/07/20 07:00:42;;;;;;;6.68;4.53;;;;;;;;;;5090340;28;20093;-81
2021/07/20 07:03:09;;;;;;;7.15;4.38;;;;;;;;;;5090398;28;20530;-82
2021/07/20 07:05:36;;;;;;;7.35;4.38;;;;;;;;;;5091369;28;20089;-81
2021/07/20 07:08:04;;;;;;;6.95;4.00;;;;;;;;;;5094179;28;20072;-82
2021/07/20 07:10:31;;;;;;;5.93;3.92;;;;;;;;;;5094298;28;20063;-83
2021/07/20 07:12:59;;;;;;;5.85;4.15;;;;;;;;;;5094087;28;20048;-83
2021/07/20 07:15:26;;;;;;;6.20;4.18;;;;;;;;;;5094048;28;20044;-83
2021/07/20 07:17:53;;;;;;;6.65;3.70;;;;;;;;;;5093991;28;20060;-85
2021/07/20 07:20:21;;;;;;;7.03;4.05;;;;;;;;;;5094527;28;20044;-82
2021/07/20 07:22:48;;;;;;;4.80;3.67;;;;;;;;;;5094157;28;20044;-83
2021/07/20 07:25:17;;;;;;;5.78;3.10;;;;;;;;;;5093927;28;20403;-83
2021/07/20 07:27:44;;;;;;;5.65;3.47;;;;;;;;;;5093655;28;20097;-84
2021/07/20 07:30:11;;;;;;;5.00;3.35;;;;;;;;;;5094085;28;20113;-81
2021/07/20 07:32:38;;;;;;;6.43;3.70;;;;;;;;;;5093822;28;20044;-83
2021/07/20 07:35:05;;;;;;;4.75;3.00;;;;;;;;;;5093888;28;20134;-83
2021/07/20 07:37:33;;;;;;;5.70;3.30;;;;;;;;;;5093794;28;20066;-83
2021/07/20 07:40:01;;;;;;;4.72;2.53;;;;;;;;;;5093632;28;20059;-82
2021/07/20 07:42:29;;;;;;;6.25;3.53;;;;;;;;;;5093975;28;20044;-79
2021/07/20 07:44:56;;;;;;;6.75;3.95;;;;;;;;;;5093702;28;20114;-80
2021/07/20 07:47:24;;;;;;;6.63;3.47;;;;;;;;;;5093398;28;20507;-80
2021/07/20 07:49:51;;;;;;;6.05;3.17;;;;;;;;;;5093559;28;20044;-81
2021/07/20 07:52:18;;;;;;;7.15;4.05;;;;;;;;;;5093374;28;20044;-81
2021/07/20 07:54:46;;;;;;;6.32;3.22;;;;;;;;;;5090588;28;20450;-81
2021/07/20 07:57:12;;;;;;;5.93;3.70;;;;;;;;;;5093410;28;20056;-82
2021/07/20 07:59:41;;;;;;;7.10;3.50;;;;;;;;;;5093507;28;20469;-81
2021/07/20 08:02:09;;;;;;;6.65;3.05;;;;;;;;;;5093396;28;20044;-81
2021/07/20 08:04:36;;;;;;;6.13;3.35;;;;;;;;;;5093196;28;20540;-81
2021/07/20 08:07:03;;;;;;;5.53;3.08;;;;;;;;;;5093022;28;20442;-82
2021/07/20 08:09:31;;;;;;;5.75;3.35;;;;;;;;;;5092915;28;20496;-80
2021/07/20 08:12:00;;;;;;;4.07;2.50;;;;;;;;;;5093222;28;20048;-81
2021/07/20 08:14:27;;;;;;;4.70;2.58;;;;;;;;;;5092889;28;20082;-82
2021/07/20 08:16:57;;;;;;;5.20;2.67;;;;;;;;;;5092602;28;20095;-81
2021/07/20 08:19:26;;;;;;;7.95;3.40;;;;;;;;;;5092982;28;20071;-82
2021/07/20 08:21:58;;;;;;;4.82;2.70;;;;;;;;;;5092783;28;20415;-82
2021/07/20 08:24:24;;;;;;;7.43;3.88;;;;;;;;;;5092841;28;20094;-81
2021/07/20 08:26:55;;;;;;;5.22;2.72;;;;;;;;;;5092799;28;20081;-82
2021/07/20 08:29:24;;;;;;;4.82;2.88;;;;;;;;;;5092700;28;20059;-82
2021/07/20 08:31:53;;;;;;;4.15;3.13;;;;;;;;;;5092821;28;20458;-81
2021/07/20 08:34:21;;;;;;;3.85;3.25;;;;;;;;;;5092551;28;20051;-81
2021/07/20 08:36:49;;;;;;;6.68;3.17;;;;;;;;;;5092775;28;20397;-82
2021/07/20 08:39:16;;;;;;;4.70;2.78;;;;;;;;;;5089826;28;20451;-82
2021/07/20 08:41:52;;;;;;;5.05;2.88;;;;;;;;;;5092722;28;20048;-82
2021/07/20 08:44:26;;;;;;;6.55;3.72;;;;;;;;;;5092474;28;20048;-81
2021/07/20 08:47:00;;;;;;;5.13;4.05;;;;;;;;;;5092217;28;20051;-81
2021/07/20 08:49:37;;;;;;;4.85;3.03;;;;;;;;;;5092438;28;20052;-80
2021/07/20 08:52:04;;;;;;;5.63;3.33;;;;;;;;;;5092362;28;20542;-82
2021/07/20 08:54:37;;;;;;;4.32;2.33;;;;;;;;;;5092172;28;20484;-82
2021/07/20 08:57:05;;;;;;;5.13;3.30;;;;;;;;;;5092205;28;20056;-83
2021/07/20 08:59:37;;;;;;;5.13;2.97;;;;;;;;;;5092422;28;20052;-82
2021/07/20 09:02:09;;;;;;;7.07;3.45;;;;;;;;;;5092404;28;20056;-80
2021/07/20 09:04:40;;;;;;;4.22;2.33;;;;;;;;;;5091909;28;20044;-80
2021/07/20 09:07:08;;;;;;;5.00;2.42;;;;;;;;;;5092063;28;20044;-83
2021/07/20 09:09:37;;;;;;;3.97;2.70;;;;;;;;;;5091888;28;20044;-81
2021/07/20 09:12:06;;;;;;;3.63;1.90;;;;;;;;;;5092020;28;20051;-81
2021/07/20 09:14:34;;;;;;;5.60;3.28;;;;;;;;;;5091767;28;20059;-82
2021/07/20 09:17:04;;;;;;;3.85;1.90;;;;;;;;;;5091929;28;20544;-82
2021/07/20 09:19:34;;;;;;;5.45;2.30;;;;;;;;;;5091764;28;20662;-81
2021/07/20 09:22:08;;;;;;;3.17;2.30;;;;;;;;;;5091686;28;20048;-80
2021/07/20 09:24:38;;;;;;;4.07;1.95;;;;;;;;;;5091618;28;20040;-80
2021/07/20 09:27:09;;;;;;;4.63;2.25;;;;;;;;;;5091844;28;20105;-81
2021/07/20 09:29:37;;;;;;;5.13;3.50;;;;;;;;;;5090945;28;20469;-82
2021/07/20 09:32:07;;;;;;;4.80;2.67;;;;;;;;;;5091736;28;20055;-79
2021/07/20 09:34:41;;;;;;;4.05;2.35;;;;;;;;;;5091447;28;20052;-82
2021/07/20 09:37:11;;;;;;;5.57;3.58;;;;;;;;;;5091440;28;20044;-82
2021/07/20 09:39:43;;;;;;;5.10;2.15;;;;;;;;;;5091384;28;20484;-82
2021/07/20 09:42:14;;;;;;;5.25;2.88;;;;;;;;;;5091445;28;20059;-81
2021/07/20 09:44:44;;;;;;;3.10;2.00;;;;;;;;;;5091280;28;20093;-81
2021/07/20 09:47:15;;;;;;;2.50;1.42;;;;;;;;;;5091083;28;20496;-80
2021/07/20 09:49:46;;;;;;;3.92;2.47;;;;;;;;;;5091412;28;20060;-80
2021/07/20 09:52:26;;;;;;;3.22;2.25;;;;;;;;;;5091263;28;20059;-81
2021/07/20 09:55:11;;;;;;;3.60;1.77;;;;;;;;;;5091108;28;20059;-80
2021/07/20 09:57:43;;;;;;;3.60;1.83;;;;;;;;;;5090796;28;20055;-82
2021/07/20 10:00:10;;;;;;;3.35;1.55;;;;;;;;;;5091045;28;20051;-81
2021/07/20 10:02:45;;;;;;;2.88;1.60;;;;;;;;;;5090947;28;20044;-80
2021/07/20 10:05:13;;;;;;;3.75;2.33;;;;;;;;;;5090969;28;20044;-82
2021/07/20 10:07:42;;;;;;;2.97;2.05;;;;;;;;;;5091058;28;20044;-81
2021/07/20 10:10:12;;;;;;;4.28;2.58;;;;;;;;;;5090725;28;20056;-82
2021/07/20 10:12:45;;;;;;;3.90;2.75;;;;;;;;;;5091147;28;20048;-81
2021/07/20 10:15:16;;;;;;;2.80;2.05;;;;;;;;;;5091093;28;20047;-82
2021/07/20 10:17:45;;;;;;;2.97;1.52;;;;;;;;;;5086933;28;20056;-82
2021/07/20 10:20:14;;;;;;;3.50;1.75;;;;;;;;;;5090979;28;20063;-82
2021/07/20 10:22:45;;;;;;;5.20;3.28;;;;;;;;;;5090631;28;20052;-83
2021/07/20 10:25:16;;;;;;;2.90;2.13;;;;;;;;;;5090768;28;20045;-83
2021/07/20 10:27:46;;;;;;;3.92;1.80;;;;;;;;;;5090918;28;20044;-78
2021/07/20 10:30:13;;;;;;;3.25;1.70;;;;;;;;;;5090710;28;21146;-81
2021/07/20 10:32:46;;;;;;;2.10;1.20;;;;;;;;;;5090877;28;20091;-81
2021/07/20 10:35:16;;;;;;;2.78;1.90;;;;;;;;;;5089875;28;20044;-81
2021/07/20 10:37:46;;;;;;;2.40;1.25;;;;;;;;;;5089799;28;20052;-81
2021/07/20 10:40:15;;;;;;;2.05;1.25;;;;;;;;;;5091482;28;20093;-82
2021/07/20 10:42:44;;;;;;;4.28;2.35;;;;;;;;;;5094334;28;20135;-82
2021/07/20 10:45:13;;;;;;;2.72;1.80;;;;;;;;;;5094470;28;20101;-82
2021/07/20 10:47:43;;;;;;;2.47;1.63;;;;;;;;;;5093944;28;20039;-82
2021/07/20 10:50:13;;;;;;;4.93;1.98;;;;;;;;;;5093644;28;20589;-81
2021/07/20 10:52:57;;;;;;;3.38;2.20;;;;;;;;;;5093814;28;20101;-79
2021/07/20 10:55:26;;;;;;;3.40;2.17;;;;;;;;;;5083378;28;20044;-82
2021/07/20 10:58:00;;;;;;;5.93;2.25;;;;;;;;;;5094513;28;20101;-80
2021/07/20 11:00:34;;;;;;;2.50;1.70;;;;;;;;;;5094661;28;20044;-80
2021/07/20 11:03:06;;;;;;;2.78;1.30;;;;;;;;;;5094539;28;20052;-81
2021/07/20 11:05:36;;;;;;;2.97;1.92;;;;;;;;;;5094464;28;20052;-81
2021/07/20 11:08:03;;;;;;;5.03;2.33;;;;;;;;;;5094249;28;20055;-81
2021/07/20 11:10:33;;;;;;;2.53;1.48;;;;;;;;;;5090292;28;20048;-82
2021/07/20 11:13:00;;;;;;;3.42;2.58;;;;;;;;;;5094205;28;20044;-82
2021/07/20 11:15:28;;;;;;;2.70;1.58;;;;;;;;;;5094154;28;20498;-82
2021/07/20 11:17:57;;;;;;;4.05;2.92;;;;;;;;;;5094025;28;20048;-82
2021/07/20 11:20:24;;;;;;;2.47;1.45;;;;;;;;;;5094120;28;20052;-79
2021/07/20 11:22:52;;;;;;;4.00;1.90;;;;;;;;;;5094024;28;20056;-82
2021/07/20 11:25:19;;;;;;;2.88;1.83;;;;;;;;;;5093958;28;20097;-82
2021/07/20 11:27:48;;;;;;;3.22;1.80;;;;;;;;;;5094331;28;20097;-80
2021/07/20 11:30:16;;;;;;;3.08;1.90;;;;;;;;;;5093890;28;20401;-82
2021/07/20 11:32:47;;;;;;;3.47;1.48;;;;;;;;;;5093916;28;20048;-81
2021/07/20 11:35:16;;;;;;;2.17;1.23;;;;;;;;;;5093841;28;20097;-79
2021/07/20 11:37:44;;;;;;;3.08;1.88;;;;;;;;;;5093597;28;20048;-82
2021/07/20 11:40:14;;;;;;;3.78;2.55;;;;;;;;;;5092409;28;20109;-80
2021/07/20 11:43:09;;;;;;;5.63;2.08;;;;;;;;;;5093105;28;20052;-81
2021/07/20 11:45:43;;;;;;;3.58;2.10;;;;;;;;;;5069539;28;20127;-83
2021/07/20 11:48:13;;;;;;;3.42;1.70;;;;;;;;;;5069587;28;20040;-83
2021/07/20 11:50:42;;;;;;;3.45;1.73;;;;;;;;;;5071713;28;20044;-81
2021/07/20 11:53:13;;;;;;;4.28;2.13;;;;;;;;;;5071639;28;20067;-81
2021/07/20 11:55:46;;;;;;;3.17;1.98;;;;;;;;;;5072119;28;20079;-80
2021/07/20 11:58:28;;;;;;;3.70;1.70;;;;;;;;;;5071212;28;20496;-82
2021/07/20 12:01:10;;;;;;;3.20;1.75;;;;;;;;;;5071456;28;20552;-81
2021/07/20 12:03:41;;;;;;;4.40;1.90;;;;;;;;;;5071440;28;20044;-83
2021/07/20 12:06:25;;;;;;;2.63;1.73;;;;;;;;;;5071506;28;20186;-81
2021/07/20 12:08:58;;;;;;;4.13;2.13;;;;;;;;;;5072470;28;20094;-83
2021/07/20 12:11:26;;;;;;;3.28;2.08;;;;;;;;;;5073349;28;20165;-80
2021/07/20 12:13:58;;;;;;;2.55;1.67;;;;;;;;;;5072758;28;20485;-82
2021/07/20 12:16:26;;;;;;;4.53;2.03;;;;;;;;;;5072850;28;20060;-79
2021/07/20 12:18:54;;;;;;;6.13;2.45;;;;;;;;;;5072720;28;20052;-81
2021/07/20 12:21:21;;;;;;;4.80;2.30;;;;;;;;;;5072603;28;20450;-81
2021/07/20 12:23:51;;;;;;;3.25;2.20;;;;;;;;;;5073044;28;20056;-80
2021/07/20 12:26:18;;;;;;;4.25;2.25;;;;;;;;;;5072761;28;20086;-81
2021/07/20 12:28:45;;;;;;;3.78;1.85;;;;;;;;;;5072718;28;20041;-81
2021/07/20 12:31:12;;;;;;;3.95;3.00;;;;;;;;;;5072534;28;20496;-80
2021/07/20 12:33:42;;;;;;;4.57;2.13;;;;;;;;;;5072445;28;20389;-81
2021/07/20 12:36:09;;;;;;;3.22;1.77;;;;;;;;;;5072374;28;20048;-80
2021/07/20 12:38:35;;;;;;;4.00;2.35;;;;;;;;;;5072501;28;20053;-80
2021/07/20 12:41:08;;;;;;;9.55;2.42;;;;;;;;;;5072591;28;20090;-81
2021/07/20 12:43:36;;;;;;;4.15;1.70;;;;;;;;;;5072294;28;20431;-81
2021/07/20 12:46:09;;;;;;;3.53;2.50;;;;;;;;;;5072265;28;20107;-80
2021/07/20 12:48:36;;;;;;;3.25;2.25;;;;;;;;;;5071664;28;20161;-81
2021/07/20 12:51:11;;;;;;;6.55;2.22;;;;;;;;;;5072072;28;20048;-81
2021/07/20 12:53:38;;;;;;;3.63;2.08;;;;;;;;;;5072193;28;20135;-82
2021/07/20 12:56:05;;;;;;;2.95;2.05;;;;;;;;;;5071892;28;20048;-82
2021/07/20 12:58:31;;;;;;;3.38;1.45;;;;;;;;;;5072106;28;20151;-82
2021/07/20 13:00:59;;;;;;;3.20;1.77;;;;;;;;;;5071901;28;20052;-81
2021/07/20 13:03:26;;;;;;;3.45;1.73;;;;;;;;;;5071775;28;20480;-81
2021/07/20 13:05:54;;;;;;;2.05;1.08;;;;;;;;;;5071799;28;20044;-81
2021/07/20 13:08:22;;;;;;;2.60;1.92;;;;;;;;;;5071925;28;20048;-81
2021/07/20 13:10:49;;;;;;;3.50;1.48;;;;;;;;;;5071684;28;20056;-81
2021/07/20 13:13:15;;;;;;;3.13;1.77;;;;;;;;;;5071593;28;20045;-82
2021/07/20 13:15:46;;;;;;;3.55;2.00;;;;;;;;;;5071561;28;20044;-80
2021/07/20 13:18:13;;;;;;;3.40;1.67;;;;;;;;;;5071839;28;20487;-81
2021/07/20 13:20:39;;;;;;;3.28;2.20;;;;;;;;;;5071670;28;20047;-82
2021/07/20 13:23:06;;;;;;;3.47;1.75;;;;;;;;;;5071651;28;20048;-81
2021/07/20 13:25:34;;;;;;;3.63;1.92;;;;;;;;;;5071539;28;20045;-84
2021/07/20 13:28:00;;;;;;;3.28;1.63;;;;;;;;;;5071133;28;20102;-81
2021/07/20 13:30:28;;;;;;;2.90;1.70;;;;;;;;;;5071255;28;20044;-81
2021/07/20 13:32:54;;;;;;;4.80;2.05;;;;;;;;;;5071040;28;20040;-83
2021/07/20 13:35:22;;;;;;;2.45;2.05;;;;;;;;;;5069018;28;20052;-80
2021/07/20 13:37:49;;;;;;;4.43;2.15;;;;;;;;;;5071095;28;20044;-80
2021/07/20 13:40:18;;;;;;;4.22;2.10;;;;;;;;;;5071129;28;20105;-81
2021/07/20 13:42:47;;;;;;;2.85;1.63;;;;;;;;;;5071112;28;20412;-80
2021/07/20 13:45:14;;;;;;;4.25;2.17;;;;;;;;;;5071189;28;20118;-81
2021/07/20 13:47:42;;;;;;;3.63;2.10;;;;;;;;;;5071266;28;20044;-81
2021/07/20 13:50:09;;;;;;;4.53;3.03;;;;;;;;;;5071037;28;20122;-81
2021/07/20 13:52:38;;;;;;;4.45;2.15;;;;;;;;;;5071110;28;20044;-81
2021/07/20 13:55:06;;;;;;;4.40;2.17;;;;;;;;;;5070892;28;20484;-80
2021/07/20 13:57:33;;;;;;;5.00;3.00;;;;;;;;;;5071240;28;20040;-81
2021/07/20 14:00:01;;;;;;;3.90;1.90;;;;;;;;;;5070913;28;20488;-80
2021/07/20 14:02:28;;;;;;;3.88;2.05;;;;;;;;;;5070924;28;20417;-82
2021/07/20 14:04:55;;;;;;;3.10;1.95;;;;;;;;;;5070648;28;20094;-80
2021/07/20 14:07:22;;;;;;;3.30;1.70;;;;;;;;;;5070818;28;20052;-79
2021/07/20 14:09:50;;;;;;;4.93;2.15;;;;;;;;;;5070674;28;20052;-82
2021/07/20 14:12:18;;;;;;;4.47;2.50;;;;;;;;;;5070796;28;20052;-80
2021/07/20 14:14:45;;;;;;;2.65;1.73;;;;;;;;;;5070481;28;20040;-81
2021/07/20 14:17:13;;;;;;;2.10;1.27;;;;;;;;;;5070737;28;20056;-81
2021/07/20 14:19:41;;;;;;;4.03;2.25;;;;;;;;;;5070784;28;20044;-82
2021/07/20 14:22:07;;;;;;;2.45;1.45;;;;;;;;;;5070498;28;20044;-80
2021/07/20 14:24:35;;;;;;;2.50;1.40;;;;;;;;;;5070814;28;20704;-79
2021/07/20 14:27:02;;;;;;;3.38;1.67;;;;;;;;;;5070666;28;20139;-82
2021/07/20 14:29:30;;;;;;;1.98;1.05;;;;;;;;;;5070629;28;20048;-80
2021/07/20 14:31:57;;;;;;;2.15;1.20;;;;;;;;;;5070613;28;20055;-81
2021/07/20 14:34:24;;;;;;;2.03;1.23;;;;;;;;;;5070768;28;20040;-85
2021/07/20 14:36:52;;;;;;;1.63;1.17;;;;;;;;;;5070427;28;20063;-82
2021/07/20 14:39:32;;;;;;;2.55;1.52;;;;;;;;;;5070763;28;20462;-80
2021/07/20 14:42:13;;;;;;;2.53;1.70;;;;;;;;;;5070537;28;20105;-79
2021/07/20 14:44:41;;;;;;;2.88;1.67;;;;;;;;;;5068040;28;20055;-79
2021/07/20 14:47:07;;;;;;;2.58;1.85;;;;;;;;;;5070440;28;20056;-79
2021/07/20 14:49:41;;;;;;;3.92;2.17;;;;;;;;;;5070542;28;20058;-81
2021/07/20 14:52:08;;;;;;;2.35;1.58;;;;;;;;;;5070410;28;20068;-81
2021/07/20 14:54:39;;;;;;;3.35;1.67;;;;;;;;;;5070453;28;20052;-81
2021/07/20 14:57:06;;;;;;;3.75;2.47;;;;;;;;;;5070360;28;20048;-80